^^
Saratoga-Weather Station Historical Data
Daily Summary for February 14, 2020 Units:  Both    English   Metric
Daily Weekly Monthly Yearly Custom
  High: Low: Average:
Temperature: 55 °F /  12.8 °C 33.4 °F /  0.8 °C 44.6 °F /  7 °C
Dew Point: 32.2 °F /  0.1 °C 26.8 °F /  -2.9 °C 29.5 °F /  -1.4 °C
Humidity: 77% 38% 57%
Wind Speed: 10.1mph /  16.3km/h - 1.9mph /  3.1km/h
Wind Gust: 14mph /  22.5km/h - -
Wind- - South
Pressure: 30.3 in /  1025.4 hPa 30.2 in /  1022.0 hPa -
Precipitation: 0 in /  0.0 mm    
Historical Graphs
 
 
Tabular Data for February 14, 2020
Time Temperature Dew Point Pressure Wind Wind Speed Wind Gust Humidity Rainfall Rate (Hourly) solar
00:04 42.6 °F /  5.9 °C 29.3 °F /  -1.5 °C 30.2in /  1022.0hPa NW 0.9mph /  1.4km/h 1mph /  1.6km/h 59% 0in /  0.0mm 0 W/m2
00:09 42.3 °F /  5.7 °C 28.9 °F /  -1.7 °C 30.2in /  1022.0hPa NE 2.9mph /  4.7km/h 3mph /  4.8km/h 59% 0in /  0.0mm 0 W/m2
00:14 42.3 °F /  5.7 °C 29.3 °F /  -1.5 °C 30.2in /  1022.0hPa NNW 2.9mph /  4.7km/h 4mph /  6.4km/h 60% 0in /  0.0mm 0 W/m2
00:19 42.1 °F /  5.6 °C 28.8 °F /  -1.8 °C 30.2in /  1022.4hPa NNE 0.9mph /  1.4km/h 5mph /  8km/h 59% 0in /  0.0mm 0 W/m2
00:24 42.1 °F /  5.6 °C 28.8 °F /  -1.8 °C 30.2in /  1022.0hPa West 2.9mph /  4.7km/h 3mph /  4.8km/h 59% 0in /  0.0mm 0 W/m2
00:29 41.9 °F /  5.5 °C 28.9 °F /  -1.7 °C 30.2in /  1022.0hPa West 2mph /  3.2km/h 4mph /  6.4km/h 60% 0in /  0.0mm 0 W/m2
00:34 41.7 °F /  5.4 °C 28.9 °F /  -1.7 °C 30.2in /  1022.0hPa WNW 0.9mph /  1.4km/h 4mph /  6.4km/h 60% 0in /  0.0mm 0 W/m2
00:39 41.5 °F /  5.3 °C 28.8 °F /  -1.8 °C 30.2in /  1022.0hPa Calm   1mph /  1.6km/h 60% 0in /  0.0mm 0 W/m2
00:44 41.5 °F /  5.3 °C 29.1 °F /  -1.6 °C 30.2in /  1022.0hPa SE 0.9mph /  1.4km/h 2mph /  3.2km/h 61% 0in /  0.0mm 0 W/m2
00:49 41.2 °F /  5.1 °C 28.8 °F /  -1.8 °C 30.2in /  1022.0hPa ENE 2mph /  3.2km/h 2mph /  3.2km/h 61% 0in /  0.0mm 0 W/m2
00:54 41.2 °F /  5.1 °C 28.8 °F /  -1.8 °C 30.2in /  1022.0hPa West 0.9mph /  1.4km/h 2mph /  3.2km/h 61% 0in /  0.0mm 0 W/m2
00:59 41 °F /  5 °C 28.9 °F /  -1.7 °C 30.2in /  1022.0hPa WNW 0.9mph /  1.4km/h 2mph /  3.2km/h 62% 0in /  0.0mm 0 W/m2
01:04 40.8 °F /  4.9 °C 28.8 °F /  -1.8 °C 30.2in /  1022.0hPa WNW 0.9mph /  1.4km/h 3mph /  4.8km/h 62% 0in /  0.0mm 0 W/m2
01:09 40.6 °F /  4.8 °C 28.6 °F /  -1.9 °C 30.2in /  1022.0hPa NW 2mph /  3.2km/h 3mph /  4.8km/h 62% 0in /  0.0mm 0 W/m2
01:14 40.5 °F /  4.7 °C 28.4 °F /  -2 °C 30.2in /  1022.0hPa WNW 0.9mph /  1.4km/h 4mph /  6.4km/h 62% 0in /  0.0mm 0 W/m2
01:19 40.5 °F /  4.7 °C 28.9 °F /  -1.7 °C 30.2in /  1022.0hPa NNW 0.9mph /  1.4km/h 2mph /  3.2km/h 63% 0in /  0.0mm 0 W/m2
01:24 40.3 °F /  4.6 °C 28.8 °F /  -1.8 °C 30.2in /  1022.4hPa Calm   3mph /  4.8km/h 63% 0in /  0.0mm 0 W/m2
01:29 40.1 °F /  4.5 °C 28.6 °F /  -1.9 °C 30.2in /  1022.4hPa NE 0.9mph /  1.4km/h 3mph /  4.8km/h 63% 0in /  0.0mm 0 W/m2
01:34 39.9 °F /  4.4 °C 28.8 °F /  -1.8 °C 30.2in /  1022.4hPa North 0.9mph /  1.4km/h 1mph /  1.6km/h 64% 0in /  0.0mm 0 W/m2
01:39 39.7 °F /  4.3 °C 28.6 °F /  -1.9 °C 30.2in /  1022.4hPa West 0.9mph /  1.4km/h 1mph /  1.6km/h 64% 0in /  0.0mm 0 W/m2
01:44 39.7 °F /  4.3 °C 28.6 °F /  -1.9 °C 30.2in /  1022.4hPa North 0.9mph /  1.4km/h 4mph /  6.4km/h 64% 0in /  0.0mm 0 W/m2
01:49 39.7 °F /  4.3 °C 28.6 °F /  -1.9 °C 30.2in /  1022.4hPa NNE 0.9mph /  1.4km/h 3mph /  4.8km/h 64% 0in /  0.0mm 0 W/m2
01:54 39.7 °F /  4.3 °C 28.6 °F /  -1.9 °C 30.2in /  1022.4hPa West 2.9mph /  4.7km/h 4mph /  6.4km/h 64% 0in /  0.0mm 0 W/m2
01:59 39.7 °F /  4.3 °C 28.6 °F /  -1.9 °C 30.2in /  1022.4hPa NW 4mph /  6.4km/h 4mph /  6.4km/h 64% 0in /  0.0mm 0 W/m2
02:04 39.7 °F /  4.3 °C 28.6 °F /  -1.9 °C 30.2in /  1022.4hPa West 0.9mph /  1.4km/h 2mph /  3.2km/h 64% 0in /  0.0mm 0 W/m2
02:09 39.6 °F /  4.2 °C 28.4 °F /  -2 °C 30.2in /  1022.7hPa Calm   1mph /  1.6km/h 64% 0in /  0.0mm 0 W/m2
02:14 39.4 °F /  4.1 °C 28.2 °F /  -2.1 °C 30.2in /  1022.7hPa North 0.9mph /  1.4km/h 3mph /  4.8km/h 64% 0in /  0.0mm 0 W/m2
02:19 39.4 °F /  4.1 °C 28.6 °F /  -1.9 °C 30.2in /  1022.7hPa WNW 0.9mph /  1.4km/h 3mph /  4.8km/h 65% 0in /  0.0mm 0 W/m2
02:24 39.2 °F /  4 °C 28.4 °F /  -2 °C 30.2in /  1022.7hPa WNW 2mph /  3.2km/h 5mph /  8km/h 65% 0in /  0.0mm 0 W/m2
02:29 39.2 °F /  4 °C 28.4 °F /  -2 °C 30.2in /  1022.7hPa Calm   3mph /  4.8km/h 65% 0in /  0.0mm 0 W/m2
02:34 39 °F /  3.9 °C 28.2 °F /  -2.1 °C 30.2in /  1022.7hPa NW 2.9mph /  4.7km/h 3mph /  4.8km/h 65% 0in /  0.0mm 0 W/m2
02:39 39 °F /  3.9 °C 28.2 °F /  -2.1 °C 30.2in /  1022.7hPa Calm   3mph /  4.8km/h 65% 0in /  0.0mm 0 W/m2
02:44 38.8 °F /  3.8 °C 28 °F /  -2.2 °C 30.2in /  1022.7hPa WNW 0.9mph /  1.4km/h 2mph /  3.2km/h 65% 0in /  0.0mm 0 W/m2
02:49 38.8 °F /  3.8 °C 28 °F /  -2.2 °C 30.2in /  1022.7hPa Calm   4mph /  6.4km/h 65% 0in /  0.0mm 0 W/m2
02:54 38.7 °F /  3.7 °C 27.9 °F /  -2.3 °C 30.2in /  1022.7hPa NE 0.9mph /  1.4km/h 1mph /  1.6km/h 65% 0in /  0.0mm 0 W/m2
02:59 38.7 °F /  3.7 °C 28.2 °F /  -2.1 °C 30.2in /  1022.7hPa North 2mph /  3.2km/h 7mph /  11.3km/h 66% 0in /  0.0mm 0 W/m2
03:04 38.5 °F /  3.6 °C 28 °F /  -2.2 °C 30.2in /  1023.0hPa West 2.9mph /  4.7km/h 5mph /  8km/h 66% 0in /  0.0mm 0 W/m2
03:09 38.5 °F /  3.6 °C 28 °F /  -2.2 °C 30.2in /  1023.0hPa WNW 2mph /  3.2km/h 7mph /  11.3km/h 66% 0in /  0.0mm 0 W/m2
03:14 38.5 °F /  3.6 °C 28 °F /  -2.2 °C 30.2in /  1023.0hPa NW 2mph /  3.2km/h 5mph /  8km/h 66% 0in /  0.0mm 0 W/m2
03:19 38.5 °F /  3.6 °C 28 °F /  -2.2 °C 30.2in /  1023.0hPa North 4.9mph /  7.9km/h 5mph /  8km/h 66% 0in /  0.0mm 0 W/m2
03:24 38.5 °F /  3.6 °C 28 °F /  -2.2 °C 30.2in /  1023.0hPa NNW 4mph /  6.4km/h 8mph /  12.9km/h 66% 0in /  0.0mm 0 W/m2
03:29 38.3 °F /  3.5 °C 27.9 °F /  -2.3 °C 30.2in /  1023.0hPa WSW 2.9mph /  4.7km/h 7mph /  11.3km/h 66% 0in /  0.0mm 0 W/m2
03:34 38.1 °F /  3.4 °C 27.9 °F /  -2.3 °C 30.2in /  1023.0hPa NW 0.9mph /  1.4km/h 3mph /  4.8km/h 66% 0in /  0.0mm 0 W/m2
03:40 37.9 °F /  3.3 °C 28 °F /  -2.2 °C 30.2in /  1023.4hPa West 0.9mph /  1.4km/h 2mph /  3.2km/h 67% 0in /  0.0mm 0 W/m2
03:45 37.9 °F /  3.3 °C 28 °F /  -2.2 °C 30.2in /  1023.4hPa NNW 2mph /  3.2km/h 3mph /  4.8km/h 67% 0in /  0.0mm 0 W/m2
03:50 37.9 °F /  3.3 °C 28 °F /  -2.2 °C 30.2in /  1023.4hPa WNW 2mph /  3.2km/h 2mph /  3.2km/h 67% 0in /  0.0mm 0 W/m2
03:55 37.9 °F /  3.3 °C 28 °F /  -2.2 °C 30.2in /  1023.4hPa NNW 0.9mph /  1.4km/h 4mph /  6.4km/h 67% 0in /  0.0mm 0 W/m2
04:00 37.8 °F /  3.2 °C 27.9 °F /  -2.3 °C 30.2in /  1023.4hPa WNW 2mph /  3.2km/h 4mph /  6.4km/h 67% 0in /  0.0mm 0 W/m2
04:05 37.8 °F /  3.2 °C 27.9 °F /  -2.3 °C 30.2in /  1023.4hPa Calm   5mph /  8km/h 67% 0in /  0.0mm 0 W/m2
04:10 37.6 °F /  3.1 °C 27.7 °F /  -2.4 °C 30.2in /  1023.4hPa Calm   4mph /  6.4km/h 67% 0in /  0.0mm 0 W/m2
04:16 37.6 °F /  3.1 °C 28 °F /  -2.2 °C 30.2in /  1023.4hPa WNW 2mph /  3.2km/h 3mph /  4.8km/h 68% 0in /  0.0mm 0 W/m2
04:21 37.4 °F /  3 °C 27.9 °F /  -2.3 °C 30.2in /  1023.4hPa North 2mph /  3.2km/h 4mph /  6.4km/h 68% 0in /  0.0mm 0 W/m2
04:26 37.2 °F /  2.9 °C 27.7 °F /  -2.4 °C 30.2in /  1023.4hPa Calm   2mph /  3.2km/h 68% 0in /  0.0mm 0 W/m2
04:31 37.2 °F /  2.9 °C 27.7 °F /  -2.4 °C 30.2in /  1023.4hPa WNW 2mph /  3.2km/h 5mph /  8km/h 68% 0in /  0.0mm 0 W/m2
04:36 37 °F /  2.8 °C 27.5 °F /  -2.5 °C 30.2in /  1023.4hPa West 2mph /  3.2km/h 2mph /  3.2km/h 68% 0in /  0.0mm 0 W/m2
04:41 36.9 °F /  2.7 °C 27.7 °F /  -2.4 °C 30.2in /  1023.7hPa Calm   4mph /  6.4km/h 69% 0in /  0.0mm 0 W/m2
04:46 36.9 °F /  2.7 °C 27.7 °F /  -2.4 °C 30.2in /  1023.7hPa NNW 0.9mph /  1.4km/h 4mph /  6.4km/h 69% 0in /  0.0mm 0 W/m2
04:51 36.9 °F /  2.7 °C 27.7 °F /  -2.4 °C 30.2in /  1023.7hPa NW 0.9mph /  1.4km/h 2mph /  3.2km/h 69% 0in /  0.0mm 0 W/m2
04:56 36.7 °F /  2.6 °C 27.5 °F /  -2.5 °C 30.2in /  1023.7hPa NNW 0.9mph /  1.4km/h 4mph /  6.4km/h 69% 0in /  0.0mm 0 W/m2
05:01 36.5 °F /  2.5 °C 27.7 °F /  -2.4 °C 30.2in /  1023.7hPa NE 0.9mph /  1.4km/h 2mph /  3.2km/h 70% 0in /  0.0mm 0 W/m2
05:06 36.5 °F /  2.5 °C 27.7 °F /  -2.4 °C 30.2in /  1024.0hPa Calm   2mph /  3.2km/h 70% 0in /  0.0mm 0 W/m2
05:11 36.3 °F /  2.4 °C 27.5 °F /  -2.5 °C 30.2in /  1024.0hPa SSE 2mph /  3.2km/h 3mph /  4.8km/h 70% 0in /  0.0mm 0 W/m2
05:16 36.1 °F /  2.3 °C 27.3 °F /  -2.6 °C 30.2in /  1024.0hPa Calm   2mph /  3.2km/h 70% 0in /  0.0mm 0 W/m2
05:21 36.1 °F /  2.3 °C 27.3 °F /  -2.6 °C 30.2in /  1024.0hPa NE 2mph /  3.2km/h 2mph /  3.2km/h 70% 0in /  0.0mm 0 W/m2
05:26 36 °F /  2.2 °C 27.5 °F /  -2.5 °C 30.2in /  1024.0hPa Calm   1mph /  1.6km/h 71% 0in /  0.0mm 0 W/m2
05:31 36 °F /  2.2 °C 27.5 °F /  -2.5 °C 30.2in /  1024.0hPa East 0.9mph /  1.4km/h 1mph /  1.6km/h 71% 0in /  0.0mm 0 W/m2
05:36 35.8 °F /  2.1 °C 27.3 °F /  -2.6 °C 30.2in /  1024.0hPa NNW 0.9mph /  1.4km/h 2mph /  3.2km/h 71% 0in /  0.0mm 0 W/m2
05:42 35.6 °F /  2 °C 27.1 °F /  -2.7 °C 30.2in /  1024.0hPa NW 0.9mph /  1.4km/h 3mph /  4.8km/h 71% 0in /  0.0mm 0 W/m2
05:47 35.4 °F /  1.9 °C 27.3 °F /  -2.6 °C 30.2in /  1024.0hPa Calm   1mph /  1.6km/h 72% 0in /  0.0mm 0 W/m2
05:52 35.4 °F /  1.9 °C 27.3 °F /  -2.6 °C 30.2in /  1024.0hPa Calm   1mph /  1.6km/h 72% 0in /  0.0mm 0 W/m2
05:57 35.2 °F /  1.8 °C 27.5 °F /  -2.5 °C 30.2in /  1024.0hPa Calm   1mph /  1.6km/h 73% 0in /  0.0mm 0 W/m2
06:02 35.1 °F /  1.7 °C 27.3 °F /  -2.6 °C 30.2in /  1024.0hPa Calm   1mph /  1.6km/h 73% 0in /  0.0mm 0 W/m2
06:07 34.9 °F /  1.6 °C 27.1 °F /  -2.7 °C 30.2in /  1024.0hPa Calm   1mph /  1.6km/h 73% 0in /  0.0mm 0 W/m2
06:12 34.7 °F /  1.5 °C 27.3 °F /  -2.6 °C 30.2in /  1024.0hPa Calm   1mph /  1.6km/h 74% 0in /  0.0mm 0 W/m2
06:17 34.5 °F /  1.4 °C 27.1 °F /  -2.7 °C 30.2in /  1024.0hPa Calm   1mph /  1.6km/h 74% 0in /  0.0mm 0 W/m2
06:23 34.3 °F /  1.3 °C 27.3 °F /  -2.6 °C 30.2in /  1024.0hPa SE 2mph /  3.2km/h 2mph /  3.2km/h 75% 0in /  0.0mm 0 W/m2
06:28 34.2 °F /  1.2 °C 27.1 °F /  -2.7 °C 30.2in /  1024.0hPa Calm   1mph /  1.6km/h 75% 0in /  0.0mm 0 W/m2
06:33 34 °F /  1.1 °C 27.1 °F /  -2.7 °C 30.2in /  1024.0hPa Calm     76% 0in /  0.0mm 0 W/m2
06:38 33.8 °F /  1 °C 27 °F /  -2.8 °C 30.2in /  1024.0hPa Calm     76% 0in /  0.0mm 0 W/m2
06:43 33.6 °F /  0.9 °C 26.8 °F /  -2.9 °C 30.2in /  1024.0hPa Calm   1mph /  1.6km/h 76% 0in /  0.0mm 0 W/m2
06:48 33.4 °F /  0.8 °C 27 °F /  -2.8 °C 30.2in /  1024.0hPa Calm   2mph /  3.2km/h 77% 0in /  0.0mm 5 W/m2
06:53 33.6 °F /  0.9 °C 27.1 °F /  -2.7 °C 30.3in /  1024.4hPa NE 0.9mph /  1.4km/h 3mph /  4.8km/h 77% 0in /  0.0mm 7 W/m2
06:58 33.6 °F /  0.9 °C 27.1 °F /  -2.7 °C 30.3in /  1024.4hPa North 0.9mph /  1.4km/h 4mph /  6.4km/h 77% 0in /  0.0mm 11 W/m2
07:03 33.8 °F /  1 °C 27.3 °F /  -2.6 °C 30.3in /  1024.4hPa ENE 2mph /  3.2km/h 2mph /  3.2km/h 77% 0in /  0.0mm 12 W/m2
07:08 34 °F /  1.1 °C 27.5 °F /  -2.5 °C 30.3in /  1024.4hPa East 0.9mph /  1.4km/h 2mph /  3.2km/h 77% 0in /  0.0mm 14 W/m2
07:13 34 °F /  1.1 °C 27.5 °F /  -2.5 °C 30.3in /  1024.4hPa Calm   1mph /  1.6km/h 77% 0in /  0.0mm 18 W/m2
07:18 34 °F /  1.1 °C 27.5 °F /  -2.5 °C 30.3in /  1024.7hPa NE 2.9mph /  4.7km/h 3mph /  4.8km/h 77% 0in /  0.0mm 19 W/m2
07:23 34.2 °F /  1.2 °C 27.7 °F /  -2.4 °C 30.3in /  1024.7hPa WNW 0.9mph /  1.4km/h 2mph /  3.2km/h 77% 0in /  0.0mm 28 W/m2
07:28 34.2 °F /  1.2 °C 27.3 °F /  -2.6 °C 30.3in /  1024.7hPa Calm   2mph /  3.2km/h 76% 0in /  0.0mm 23 W/m2
07:33 34.3 °F /  1.3 °C 27.5 °F /  -2.5 °C 30.3in /  1024.7hPa North 2.9mph /  4.7km/h 4mph /  6.4km/h 76% 0in /  0.0mm 26 W/m2
07:38 34.5 °F /  1.4 °C 27.7 °F /  -2.4 °C 30.3in /  1024.7hPa NW 0.9mph /  1.4km/h 1mph /  1.6km/h 76% 0in /  0.0mm 28 W/m2
07:43 34.5 °F /  1.4 °C 27.7 °F /  -2.4 °C 30.3in /  1024.7hPa Calm   4mph /  6.4km/h 76% 0in /  0.0mm 30 W/m2
07:48 34.7 °F /  1.5 °C 27.7 °F /  -2.4 °C 30.3in /  1024.7hPa NE 0.9mph /  1.4km/h 2mph /  3.2km/h 75% 0in /  0.0mm 33 W/m2
07:53 34.9 °F /  1.6 °C 27.7 °F /  -2.4 °C 30.3in /  1024.7hPa NNW 0.9mph /  1.4km/h 2mph /  3.2km/h 75% 0in /  0.0mm 70 W/m2
07:58 35.1 °F /  1.7 °C 27.9 °F /  -2.3 °C 30.3in /  1025.1hPa Calm   3mph /  4.8km/h 75% 0in /  0.0mm 141 W/m2
08:03 35.4 °F /  1.9 °C 28 °F /  -2.2 °C 30.3in /  1025.1hPa Calm   2mph /  3.2km/h 74% 0in /  0.0mm 149 W/m2
08:08 35.8 °F /  2.1 °C 28 °F /  -2.2 °C 30.3in /  1025.1hPa NW 0.9mph /  1.4km/h 3mph /  4.8km/h 73% 0in /  0.0mm 163 W/m2
08:13 36.1 °F /  2.3 °C 28.4 °F /  -2 °C 30.3in /  1025.1hPa WNW 0.9mph /  1.4km/h 3mph /  4.8km/h 73% 0in /  0.0mm 179 W/m2
08:18 36.3 °F /  2.4 °C 28.6 °F /  -1.9 °C 30.3in /  1025.1hPa SSE 0.9mph /  1.4km/h 1mph /  1.6km/h 73% 0in /  0.0mm 192 W/m2
08:23 36.7 °F /  2.6 °C 28.6 °F /  -1.9 °C 30.3in /  1025.1hPa North 4mph /  6.4km/h 4mph /  6.4km/h 72% 0in /  0.0mm 204 W/m2
08:28 37 °F /  2.8 °C 28.6 °F /  -1.9 °C 30.3in /  1025.1hPa WNW 0.9mph /  1.4km/h 7mph /  11.3km/h 71% 0in /  0.0mm 218 W/m2
08:33 37.2 °F /  2.9 °C 28.8 °F /  -1.8 °C 30.3in /  1025.1hPa North 2.9mph /  4.7km/h 6mph /  9.7km/h 71% 0in /  0.0mm 230 W/m2
08:38 37.6 °F /  3.1 °C 28.8 °F /  -1.8 °C 30.3in /  1025.1hPa North 0.9mph /  1.4km/h 4mph /  6.4km/h 70% 0in /  0.0mm 243 W/m2
08:43 37.8 °F /  3.2 °C 28.9 °F /  -1.7 °C 30.3in /  1025.1hPa NNE 0.9mph /  1.4km/h 6mph /  9.7km/h 70% 0in /  0.0mm 257 W/m2
08:48 38.1 °F /  3.4 °C 28.9 °F /  -1.7 °C 30.3in /  1025.1hPa WNW 0.9mph /  1.4km/h 5mph /  8km/h 69% 0in /  0.0mm 271 W/m2
08:53 38.5 °F /  3.6 °C 28.8 °F /  -1.8 °C 30.3in /  1025.1hPa NNW 2mph /  3.2km/h 2mph /  3.2km/h 68% 0in /  0.0mm 281 W/m2
08:58 38.8 °F /  3.8 °C 28.8 °F /  -1.8 °C 30.3in /  1025.1hPa NNE 2mph /  3.2km/h 8mph /  12.9km/h 67% 0in /  0.0mm 297 W/m2
09:03 39.2 °F /  4 °C 29.1 °F /  -1.6 °C 30.3in /  1025.1hPa North 4mph /  6.4km/h 6mph /  9.7km/h 67% 0in /  0.0mm 311 W/m2
09:08 39.6 °F /  4.2 °C 28.8 °F /  -1.8 °C 30.3in /  1025.1hPa North 2mph /  3.2km/h 4mph /  6.4km/h 65% 0in /  0.0mm 323 W/m2
09:13 39.9 °F /  4.4 °C 28.8 °F /  -1.8 °C 30.3in /  1025.1hPa ENE 2.9mph /  4.7km/h 9mph /  14.5km/h 64% 0in /  0.0mm 336 W/m2
09:18 40.3 °F /  4.6 °C 29.1 °F /  -1.6 °C 30.3in /  1025.4hPa NNE 2mph /  3.2km/h 8mph /  12.9km/h 64% 0in /  0.0mm 352 W/m2
09:23 40.6 °F /  4.8 °C 28.6 °F /  -1.9 °C 30.3in /  1025.4hPa SSW 2mph /  3.2km/h 9mph /  14.5km/h 62% 0in /  0.0mm 366 W/m2
09:28 41 °F /  5 °C 28.9 °F /  -1.7 °C 30.3in /  1025.1hPa NNW 4mph /  6.4km/h 4mph /  6.4km/h 62% 0in /  0.0mm 378 W/m2
09:33 41.2 °F /  5.1 °C 28.8 °F /  -1.8 °C 30.3in /  1025.1hPa NNE 2mph /  3.2km/h 9mph /  14.5km/h 61% 0in /  0.0mm 390 W/m2
09:38 41.5 °F /  5.3 °C 28.8 °F /  -1.8 °C 30.3in /  1025.1hPa ESE 2mph /  3.2km/h 6mph /  9.7km/h 60% 0in /  0.0mm 399 W/m2
09:43 41.7 °F /  5.4 °C 29.3 °F /  -1.5 °C 30.3in /  1025.1hPa NNW 4.9mph /  7.9km/h 5mph /  8km/h 61% 0in /  0.0mm 301 W/m2
09:48 42.3 °F /  5.7 °C 28.9 °F /  -1.7 °C 30.3in /  1025.1hPa NE 2mph /  3.2km/h 6mph /  9.7km/h 59% 0in /  0.0mm 125 W/m2
09:53 42.4 °F /  5.8 °C 28.8 °F /  -1.8 °C 30.3in /  1025.1hPa East 10.1mph /  16.3km/h 11mph /  17.7km/h 58% 0in /  0.0mm 438 W/m2
09:58 42.4 °F /  5.8 °C 28.2 °F /  -2.1 °C 30.3in /  1025.1hPa NE 6.9mph /  11.1km/h 13mph /  20.9km/h 57% 0in /  0.0mm 452 W/m2
10:03 42.4 °F /  5.8 °C 28.2 °F /  -2.1 °C 30.3in /  1025.1hPa ENE 6mph /  9.7km/h 11mph /  17.7km/h 57% 0in /  0.0mm 461 W/m2
10:08 42.6 °F /  5.9 °C 28.4 °F /  -2 °C 30.3in /  1025.1hPa ENE 2.9mph /  4.7km/h 7mph /  11.3km/h 57% 0in /  0.0mm 475 W/m2
10:13 43 °F /  6.1 °C 28.4 °F /  -2 °C 30.3in /  1025.1hPa NW 2.9mph /  4.7km/h 7mph /  11.3km/h 56% 0in /  0.0mm 483 W/m2
10:18 43.2 °F /  6.2 °C 28.6 °F /  -1.9 °C 30.3in /  1025.1hPa West 2.9mph /  4.7km/h 10mph /  16.1km/h 56% 0in /  0.0mm 496 W/m2
10:23 43.2 °F /  6.2 °C 28.9 °F /  -1.7 °C 30.3in /  1025.1hPa East 4.9mph /  7.9km/h 6mph /  9.7km/h 57% 0in /  0.0mm 508 W/m2
10:28 43.3 °F /  6.3 °C 29.1 °F /  -1.6 °C 30.3in /  1025.1hPa West 2.9mph /  4.7km/h 8mph /  12.9km/h 57% 0in /  0.0mm 515 W/m2
10:33 43.3 °F /  6.3 °C 28.8 °F /  -1.8 °C 30.3in /  1025.4hPa East 2.9mph /  4.7km/h 8mph /  12.9km/h 56% 0in /  0.0mm 473 W/m2
10:38 43.9 °F /  6.6 °C 29.7 °F /  -1.3 °C 30.3in /  1025.1hPa NE 6mph /  9.7km/h 11mph /  17.7km/h 57% 0in /  0.0mm 550 W/m2
10:43 44.1 °F /  6.7 °C 29.3 °F /  -1.5 °C 30.3in /  1025.4hPa ENE 0.9mph /  1.4km/h 3mph /  4.8km/h 56% 0in /  0.0mm 548 W/m2
10:48 44.1 °F /  6.7 °C 28.9 °F /  -1.7 °C 30.3in /  1025.1hPa SW 2mph /  3.2km/h 6mph /  9.7km/h 55% 0in /  0.0mm 554 W/m2
10:53 44.4 °F /  6.9 °C 29.3 °F /  -1.5 °C 30.3in /  1025.1hPa NE 4.9mph /  7.9km/h 9mph /  14.5km/h 55% 0in /  0.0mm 584 W/m2
10:58 44.8 °F /  7.1 °C 29.1 °F /  -1.6 °C 30.3in /  1025.1hPa ESE 2mph /  3.2km/h 9mph /  14.5km/h 54% 0in /  0.0mm 582 W/m2
11:03 45.3 °F /  7.4 °C 29.7 °F /  -1.3 °C 30.3in /  1025.1hPa ESE 0.9mph /  1.4km/h 4mph /  6.4km/h 54% 0in /  0.0mm 585 W/m2
11:09 45.7 °F /  7.6 °C 29.5 °F /  -1.4 °C 30.3in /  1025.4hPa East 2.9mph /  4.7km/h 7mph /  11.3km/h 53% 0in /  0.0mm 612 W/m2
11:14 45.1 °F /  7.3 °C 28.9 °F /  -1.7 °C 30.3in /  1025.1hPa ENE 2.9mph /  4.7km/h 5mph /  8km/h 53% 0in /  0.0mm 621 W/m2
11:19 45.5 °F /  7.5 °C 29.3 °F /  -1.5 °C 30.3in /  1025.1hPa ESE 6mph /  9.7km/h 6mph /  9.7km/h 53% 0in /  0.0mm 675 W/m2
11:24 45.9 °F /  7.7 °C 29.7 °F /  -1.3 °C 30.3in /  1025.1hPa NE 4mph /  6.4km/h 10mph /  16.1km/h 53% 0in /  0.0mm 679 W/m2
11:29 46.2 °F /  7.9 °C 29.5 °F /  -1.4 °C 30.3in /  1025.1hPa Calm   6mph /  9.7km/h 52% 0in /  0.0mm 661 W/m2
11:34 46.6 °F /  8.1 °C 29.5 °F /  -1.4 °C 30.3in /  1025.4hPa East 4mph /  6.4km/h 11mph /  17.7km/h 51% 0in /  0.0mm 668 W/m2
11:39 46.6 °F /  8.1 °C 29.8 °F /  -1.2 °C 30.3in /  1025.4hPa ESE 4mph /  6.4km/h 8mph /  12.9km/h 52% 0in /  0.0mm 687 W/m2
11:44 46.9 °F /  8.3 °C 30.7 °F /  -0.7 °C 30.3in /  1025.1hPa ENE 10.1mph /  16.3km/h 10mph /  16.1km/h 53% 0in /  0.0mm 703 W/m2
11:49 46.4 °F /  8 °C 29.3 °F /  -1.5 °C 30.3in /  1025.4hPa East 0.9mph /  1.4km/h 3mph /  4.8km/h 51% 0in /  0.0mm 385 W/m2
11:54 46.2 °F /  7.9 °C 29.5 °F /  -1.4 °C 30.3in /  1025.1hPa North 2mph /  3.2km/h 3mph /  4.8km/h 52% 0in /  0.0mm 452 W/m2
11:59 46.2 °F /  7.9 °C 29.5 °F /  -1.4 °C 30.3in /  1025.4hPa WNW 0.9mph /  1.4km/h 4mph /  6.4km/h 52% 0in /  0.0mm 243 W/m2
12:04 46.6 °F /  8.1 °C 30.4 °F /  -0.9 °C 30.3in /  1025.1hPa NNW 2mph /  3.2km/h 3mph /  4.8km/h 53% 0in /  0.0mm 675 W/m2
12:09 46.9 °F /  8.3 °C 29.8 °F /  -1.2 °C 30.3in /  1025.1hPa North 6mph /  9.7km/h 9mph /  14.5km/h 51% 0in /  0.0mm 684 W/m2
12:14 47.5 °F /  8.6 °C 29.8 °F /  -1.2 °C 30.3in /  1025.4hPa ESE 6mph /  9.7km/h 9mph /  14.5km/h 50% 0in /  0.0mm 689 W/m2
12:19 47.7 °F /  8.7 °C 30 °F /  -1.1 °C 30.3in /  1025.1hPa ENE 2mph /  3.2km/h 4mph /  6.4km/h 50% 0in /  0.0mm 701 W/m2
12:24 47.8 °F /  8.8 °C 29.7 °F /  -1.3 °C 30.3in /  1025.1hPa ESE 2mph /  3.2km/h 5mph /  8km/h 49% 0in /  0.0mm 696 W/m2
12:29 48 °F /  8.9 °C 29.8 °F /  -1.2 °C 30.3in /  1025.1hPa NNE 2mph /  3.2km/h 2mph /  3.2km/h 49% 0in /  0.0mm 710 W/m2
12:34 48.4 °F /  9.1 °C 30.6 °F /  -0.8 °C 30.3in /  1025.1hPa Calm   2mph /  3.2km/h 50% 0in /  0.0mm 747 W/m2
12:39 48.9 °F /  9.4 °C 30 °F /  -1.1 °C 30.3in /  1025.1hPa East 6mph /  9.7km/h 11mph /  17.7km/h 48% 0in /  0.0mm 731 W/m2
12:44 48.9 °F /  9.4 °C 30 °F /  -1.1 °C 30.3in /  1025.1hPa NE 2.9mph /  4.7km/h 6mph /  9.7km/h 48% 0in /  0.0mm 715 W/m2
12:49 48.9 °F /  9.4 °C 30 °F /  -1.1 °C 30.3in /  1025.1hPa East 2.9mph /  4.7km/h 4mph /  6.4km/h 48% 0in /  0.0mm 722 W/m2
12:54 48.9 °F /  9.4 °C 30.6 °F /  -0.8 °C 30.3in /  1025.1hPa East 8.1mph /  13km/h 10mph /  16.1km/h 49% 0in /  0.0mm 728 W/m2
12:59 49.3 °F /  9.6 °C 30.4 °F /  -0.9 °C 30.3in /  1025.1hPa NE 6mph /  9.7km/h 11mph /  17.7km/h 48% 0in /  0.0mm 721 W/m2
13:04 49.5 °F /  9.7 °C 30 °F /  -1.1 °C 30.3in /  1025.1hPa East 0.9mph /  1.4km/h 4mph /  6.4km/h 47% 0in /  0.0mm 719 W/m2
13:09 49.6 °F /  9.8 °C 30.2 °F /  -1 °C 30.3in /  1024.7hPa ENE 2mph /  3.2km/h 10mph /  16.1km/h 47% 0in /  0.0mm 722 W/m2
13:14 49.8 °F /  9.9 °C 30.4 °F /  -0.9 °C 30.3in /  1024.7hPa NNW 2.9mph /  4.7km/h 7mph /  11.3km/h 47% 0in /  0.0mm 719 W/m2
13:19 49.8 °F /  9.9 °C 30.4 °F /  -0.9 °C 30.3in /  1024.7hPa SE 2.9mph /  4.7km/h 6mph /  9.7km/h 47% 0in /  0.0mm 724 W/m2
13:24 49.8 °F /  9.9 °C 30.4 °F /  -0.9 °C 30.3in /  1024.7hPa NNW 0.9mph /  1.4km/h 10mph /  16.1km/h 47% 0in /  0.0mm 724 W/m2
13:29 50.2 °F /  10.1 °C 30.2 °F /  -1 °C 30.3in /  1024.7hPa WNW 2.9mph /  4.7km/h 4mph /  6.4km/h 46% 0in /  0.0mm 721 W/m2
13:34 50.4 °F /  10.2 °C 30.4 °F /  -0.9 °C 30.3in /  1024.4hPa NNE 4.9mph /  7.9km/h 10mph /  16.1km/h 46% 0in /  0.0mm 726 W/m2
13:39 50.7 °F /  10.4 °C 30.2 °F /  -1 °C 30.3in /  1024.4hPa ENE 2.9mph /  4.7km/h 10mph /  16.1km/h 45% 0in /  0.0mm 726 W/m2
13:44 50.7 °F /  10.4 °C 29.7 °F /  -1.3 °C 30.3in /  1024.4hPa South 0.9mph /  1.4km/h 11mph /  17.7km/h 44% 0in /  0.0mm 722 W/m2
13:49 50.7 °F /  10.4 °C 30.7 °F /  -0.7 °C 30.3in /  1024.4hPa NE 4mph /  6.4km/h 12mph /  19.3km/h 46% 0in /  0.0mm 722 W/m2
13:54 50.5 °F /  10.3 °C 30 °F /  -1.1 °C 30.3in /  1024.4hPa East 2mph /  3.2km/h 7mph /  11.3km/h 45% 0in /  0.0mm 714 W/m2
14:00 50.5 °F /  10.3 °C 30 °F /  -1.1 °C 30.3in /  1024.4hPa NW 2.9mph /  4.7km/h 9mph /  14.5km/h 45% 0in /  0.0mm 710 W/m2
14:05 50.7 °F /  10.4 °C 30.7 °F /  -0.7 °C 30.3in /  1024.4hPa West 2mph /  3.2km/h 5mph /  8km/h 46% 0in /  0.0mm 712 W/m2
14:10 50.7 °F /  10.4 °C 30.7 °F /  -0.7 °C 30.3in /  1024.4hPa ENE 4mph /  6.4km/h 9mph /  14.5km/h 46% 0in /  0.0mm 707 W/m2
14:15 50.7 °F /  10.4 °C 30.7 °F /  -0.7 °C 30.3in /  1024.4hPa ENE 4mph /  6.4km/h 4mph /  6.4km/h 46% 0in /  0.0mm 714 W/m2
14:20 51.1 °F /  10.6 °C 30.6 °F /  -0.8 °C 30.3in /  1024.4hPa ENE 2.9mph /  4.7km/h 4mph /  6.4km/h 45% 0in /  0.0mm 708 W/m2
14:25 51.1 °F /  10.6 °C 30.6 °F /  -0.8 °C 30.2in /  1024.0hPa NW 2.9mph /  4.7km/h 6mph /  9.7km/h 45% 0in /  0.0mm 698 W/m2
14:30 51.4 °F /  10.8 °C 30.2 °F /  -1 °C 30.3in /  1024.4hPa ENE 2.9mph /  4.7km/h 13mph /  20.9km/h 44% 0in /  0.0mm 700 W/m2
14:35 51.4 °F /  10.8 °C 30.2 °F /  -1 °C 30.2in /  1024.0hPa East 6mph /  9.7km/h 7mph /  11.3km/h 44% 0in /  0.0mm 696 W/m2
14:40 51.6 °F /  10.9 °C 30.4 °F /  -0.9 °C 30.2in /  1024.0hPa WNW 2mph /  3.2km/h 4mph /  6.4km/h 44% 0in /  0.0mm 693 W/m2
14:45 52 °F /  11.1 °C 30.7 °F /  -0.7 °C 30.2in /  1024.0hPa NE 4mph /  6.4km/h 4mph /  6.4km/h 44% 0in /  0.0mm 686 W/m2
14:50 52.2 °F /  11.2 °C 30.4 °F /  -0.9 °C 30.3in /  1024.4hPa SE 4.9mph /  7.9km/h 9mph /  14.5km/h 43% 0in /  0.0mm 682 W/m2
14:55 52 °F /  11.1 °C 31.3 °F /  -0.4 °C 30.3in /  1024.4hPa East 0.9mph /  1.4km/h 5mph /  8km/h 45% 0in /  0.0mm 675 W/m2
15:00 52.2 °F /  11.2 °C 29.8 °F /  -1.2 °C 30.2in /  1024.0hPa SSW 0.9mph /  1.4km/h 3mph /  4.8km/h 42% 0in /  0.0mm 673 W/m2
15:05 52.5 °F /  11.4 °C 30 °F /  -1.1 °C 30.2in /  1024.0hPa NNW 2.9mph /  4.7km/h 14mph /  22.5km/h 42% 0in /  0.0mm 663 W/m2
15:10 52.5 °F /  11.4 °C 30 °F /  -1.1 °C 30.2in /  1024.0hPa NNE 2mph /  3.2km/h 7mph /  11.3km/h 42% 0in /  0.0mm 657 W/m2
15:15 52.5 °F /  11.4 °C 30 °F /  -1.1 °C 30.2in /  1024.0hPa ESE 0.9mph /  1.4km/h 7mph /  11.3km/h 42% 0in /  0.0mm 654 W/m2
15:20 52.5 °F /  11.4 °C 30.7 °F /  -0.7 °C 30.2in /  1024.0hPa ESE 2.9mph /  4.7km/h 4mph /  6.4km/h 43% 0in /  0.0mm 647 W/m2
15:25 52.3 °F /  11.3 °C 31.1 °F /  -0.5 °C 30.2in /  1024.0hPa ENE 2mph /  3.2km/h 6mph /  9.7km/h 44% 0in /  0.0mm 640 W/m2
15:30 52.9 °F /  11.6 °C 30.4 °F /  -0.9 °C 30.2in /  1024.0hPa SE 6.9mph /  11.1km/h 10mph /  16.1km/h 42% 0in /  0.0mm 633 W/m2
15:35 52.9 °F /  11.6 °C 30.4 °F /  -0.9 °C 30.2in /  1024.0hPa SSE 2mph /  3.2km/h 8mph /  12.9km/h 42% 0in /  0.0mm 624 W/m2
15:41 52.9 °F /  11.6 °C 30.9 °F /  -0.6 °C 30.2in /  1024.0hPa ESE 4mph /  6.4km/h 10mph /  16.1km/h 43% 0in /  0.0mm 621 W/m2
15:46 52.9 °F /  11.6 °C 30.9 °F /  -0.6 °C 30.2in /  1023.7hPa East 8.9mph /  14.3km/h 12mph /  19.3km/h 43% 0in /  0.0mm 605 W/m2
15:51 52.9 °F /  11.6 °C 30.4 °F /  -0.9 °C 30.2in /  1023.7hPa ESE 6mph /  9.7km/h 9mph /  14.5km/h 42% 0in /  0.0mm 584 W/m2
15:56 53.1 °F /  11.7 °C 31.1 °F /  -0.5 °C 30.2in /  1024.0hPa ESE 4mph /  6.4km/h 12mph /  19.3km/h 43% 0in /  0.0mm 591 W/m2
16:01 53.2 °F /  11.8 °C 31.3 °F /  -0.4 °C 30.2in /  1023.7hPa ESE 6.9mph /  11.1km/h 9mph /  14.5km/h 43% 0in /  0.0mm 582 W/m2
16:06 53.1 °F /  11.7 °C 30 °F /  -1.1 °C 30.2in /  1023.7hPa WSW 0.9mph /  1.4km/h 2mph /  3.2km/h 41% 0in /  0.0mm 573 W/m2
16:11 53.4 °F /  11.9 °C 31.5 °F /  -0.3 °C 30.2in /  1023.7hPa Calm   8mph /  12.9km/h 43% 0in /  0.0mm 559 W/m2
16:16 54.3 °F /  12.4 °C 31.1 °F /  -0.5 °C 30.2in /  1023.7hPa ENE 2mph /  3.2km/h 7mph /  11.3km/h 41% 0in /  0.0mm 550 W/m2
16:21 54.1 °F /  12.3 °C 30.4 °F /  -0.9 °C 30.2in /  1023.7hPa ENE 2.9mph /  4.7km/h 4mph /  6.4km/h 40% 0in /  0.0mm 545 W/m2
16:26 54.1 °F /  12.3 °C 30.9 °F /  -0.6 °C 30.2in /  1023.7hPa ENE 2mph /  3.2km/h 10mph /  16.1km/h 41% 0in /  0.0mm 531 W/m2
16:32 54.1 °F /  12.3 °C 30.4 °F /  -0.9 °C 30.2in /  1023.7hPa North 2.9mph /  4.7km/h 9mph /  14.5km/h 40% 0in /  0.0mm 519 W/m2
16:37 54.3 °F /  12.4 °C 30.6 °F /  -0.8 °C 30.2in /  1023.7hPa East 2.9mph /  4.7km/h 6mph /  9.7km/h 40% 0in /  0.0mm 513 W/m2
16:42 54.5 °F /  12.5 °C 30.7 °F /  -0.7 °C 30.2in /  1023.7hPa North 4mph /  6.4km/h 9mph /  14.5km/h 40% 0in /  0.0mm 503 W/m2
16:47 54.9 °F /  12.7 °C 31.6 °F /  -0.2 °C 30.2in /  1023.7hPa ESE 2mph /  3.2km/h 4mph /  6.4km/h 41% 0in /  0.0mm 489 W/m2
16:52 55 °F /  12.8 °C 31.1 °F /  -0.5 °C 30.2in /  1023.7hPa NNW 2.9mph /  4.7km/h 8mph /  12.9km/h 40% 0in /  0.0mm 476 W/m2
16:57 54.9 °F /  12.7 °C 30.4 °F /  -0.9 °C 30.2in /  1023.7hPa WSW 4mph /  6.4km/h 8mph /  12.9km/h 39% 0in /  0.0mm 466 W/m2
17:02 54.7 °F /  12.6 °C 30.9 °F /  -0.6 °C 30.2in /  1023.7hPa NNE 0.9mph /  1.4km/h 9mph /  14.5km/h 40% 0in /  0.0mm 452 W/m2
17:07 54.9 °F /  12.7 °C 30.9 °F /  -0.6 °C 30.2in /  1023.4hPa NNW 2mph /  3.2km/h 4mph /  6.4km/h 40% 0in /  0.0mm 439 W/m2
17:12 55 °F /  12.8 °C 30.6 °F /  -0.8 °C 30.2in /  1023.4hPa South 0.9mph /  1.4km/h 9mph /  14.5km/h 39% 0in /  0.0mm 432 W/m2
17:17 55 °F /  12.8 °C 30.6 °F /  -0.8 °C 30.2in /  1023.4hPa ENE 2mph /  3.2km/h 11mph /  17.7km/h 39% 0in /  0.0mm 418 W/m2
17:22 54.9 °F /  12.7 °C 30.4 °F /  -0.9 °C 30.2in /  1023.4hPa NNE 2.9mph /  4.7km/h 8mph /  12.9km/h 39% 0in /  0.0mm 404 W/m2
17:27 54.7 °F /  12.6 °C 30.9 °F /  -0.6 °C 30.2in /  1023.4hPa NNW 2mph /  3.2km/h 3mph /  4.8km/h 40% 0in /  0.0mm 392 W/m2
17:32 54.9 °F /  12.7 °C 30.9 °F /  -0.6 °C 30.2in /  1023.4hPa ESE 2.9mph /  4.7km/h 9mph /  14.5km/h 40% 0in /  0.0mm 381 W/m2
17:37 54.7 °F /  12.6 °C 30.2 °F /  -1 °C 30.2in /  1023.4hPa NNE 4.9mph /  7.9km/h 5mph /  8km/h 39% 0in /  0.0mm 369 W/m2
17:42 54.9 °F /  12.7 °C 30.9 °F /  -0.6 °C 30.2in /  1023.4hPa ESE 0.9mph /  1.4km/h 9mph /  14.5km/h 40% 0in /  0.0mm 357 W/m2
17:47 54.7 °F /  12.6 °C 30.2 °F /  -1 °C 30.2in /  1023.4hPa SSE 6mph /  9.7km/h 6mph /  9.7km/h 39% 0in /  0.0mm 343 W/m2
17:52 54.9 °F /  12.7 °C 30.4 °F /  -0.9 °C 30.2in /  1023.4hPa SE 2mph /  3.2km/h 4mph /  6.4km/h 39% 0in /  0.0mm 332 W/m2
17:57 55 °F /  12.8 °C 31.1 °F /  -0.5 °C 30.2in /  1023.4hPa NNW 2mph /  3.2km/h 4mph /  6.4km/h 40% 0in /  0.0mm 320 W/m2
18:02 55 °F /  12.8 °C 29.8 °F /  -1.2 °C 30.2in /  1023.4hPa East 4mph /  6.4km/h 4mph /  6.4km/h 38% 0in /  0.0mm 304 W/m2
18:07 54.9 °F /  12.7 °C 30.4 °F /  -0.9 °C 30.2in /  1023.4hPa North 2mph /  3.2km/h 5mph /  8km/h 39% 0in /  0.0mm 290 W/m2
18:12 55 °F /  12.8 °C 30.6 °F /  -0.8 °C 30.2in /  1023.0hPa East 2mph /  3.2km/h 4mph /  6.4km/h 39% 0in /  0.0mm 279 W/m2
18:17 55 °F /  12.8 °C 29.8 °F /  -1.2 °C 30.2in /  1023.4hPa ENE 4mph /  6.4km/h 11mph /  17.7km/h 38% 0in /  0.0mm 265 W/m2
18:22 54.9 °F /  12.7 °C 30.4 °F /  -0.9 °C 30.2in /  1023.4hPa ENE 6mph /  9.7km/h 7mph /  11.3km/h 39% 0in /  0.0mm 255 W/m2
18:27 54.9 °F /  12.7 °C 30.4 °F /  -0.9 °C 30.2in /  1023.4hPa NE 0.9mph /  1.4km/h 11mph /  17.7km/h 39% 0in /  0.0mm 244 W/m2
18:32 54.9 °F /  12.7 °C 30.4 °F /  -0.9 °C 30.2in /  1023.4hPa ENE 2.9mph /  4.7km/h 10mph /  16.1km/h 39% 0in /  0.0mm 229 W/m2
18:37 54.9 °F /  12.7 °C 30.9 °F /  -0.6 °C 30.2in /  1023.4hPa ENE 2mph /  3.2km/h 4mph /  6.4km/h 40% 0in /  0.0mm 216 W/m2
18:42 54.9 °F /  12.7 °C 30.4 °F /  -0.9 °C 30.2in /  1023.4hPa ESE 2mph /  3.2km/h 10mph /  16.1km/h 39% 0in /  0.0mm 202 W/m2
18:47 54.9 °F /  12.7 °C 30.4 °F /  -0.9 °C 30.2in /  1023.4hPa NNW 4.9mph /  7.9km/h 5mph /  8km/h 39% 0in /  0.0mm 185 W/m2
18:52 54.7 °F /  12.6 °C 30.2 °F /  -1 °C 30.2in /  1023.4hPa NNW 0.9mph /  1.4km/h 9mph /  14.5km/h 39% 0in /  0.0mm 169 W/m2
18:57 54.5 °F /  12.5 °C 30 °F /  -1.1 °C 30.2in /  1023.4hPa West 0.9mph /  1.4km/h 5mph /  8km/h 39% 0in /  0.0mm 155 W/m2
19:02 54.3 °F /  12.4 °C 29.8 °F /  -1.2 °C 30.2in /  1023.4hPa NNE 0.9mph /  1.4km/h 8mph /  12.9km/h 39% 0in /  0.0mm 141 W/m2
19:07 54.1 °F /  12.3 °C 30.9 °F /  -0.6 °C 30.2in /  1023.4hPa NNW 4.9mph /  7.9km/h 5mph /  8km/h 41% 0in /  0.0mm 125 W/m2
19:12 54.1 °F /  12.3 °C 30.4 °F /  -0.9 °C 30.2in /  1023.4hPa NNW 2.9mph /  4.7km/h 6mph /  9.7km/h 40% 0in /  0.0mm 113 W/m2
19:17 54 °F /  12.2 °C 29.5 °F /  -1.4 °C 30.2in /  1023.4hPa NE 0.9mph /  1.4km/h 3mph /  4.8km/h 39% 0in /  0.0mm 100 W/m2
19:22 54 °F /  12.2 °C 30.2 °F /  -1 °C 30.2in /  1023.4hPa SSE 2mph /  3.2km/h 3mph /  4.8km/h 40% 0in /  0.0mm 86 W/m2
19:27 54 °F /  12.2 °C 30.7 °F /  -0.7 °C 30.2in /  1023.4hPa NE 0.9mph /  1.4km/h 3mph /  4.8km/h 41% 0in /  0.0mm 76 W/m2
19:32 53.6 °F /  12 °C 29.8 °F /  -1.2 °C 30.2in /  1023.4hPa ENE 2.9mph /  4.7km/h 4mph /  6.4km/h 40% 0in /  0.0mm 65 W/m2
19:37 53.4 °F /  11.9 °C 30.4 °F /  -0.9 °C 30.2in /  1023.4hPa NW 2.9mph /  4.7km/h 3mph /  4.8km/h 41% 0in /  0.0mm 54 W/m2
19:43 53.2 °F /  11.8 °C 30.2 °F /  -1 °C 30.2in /  1023.4hPa NE 0.9mph /  1.4km/h 6mph /  9.7km/h 41% 0in /  0.0mm 46 W/m2
19:48 53.1 °F /  11.7 °C 30 °F /  -1.1 °C 30.2in /  1023.4hPa NW 2mph /  3.2km/h 4mph /  6.4km/h 41% 0in /  0.0mm 35 W/m2
19:53 52.7 °F /  11.5 °C 30.2 °F /  -1 °C 30.2in /  1023.4hPa NNW 2mph /  3.2km/h 6mph /  9.7km/h 42% 0in /  0.0mm 23 W/m2
19:58 52.3 °F /  11.3 °C 29.8 °F /  -1.2 °C 30.2in /  1023.7hPa WSW 4.9mph /  7.9km/h 5mph /  8km/h 42% 0in /  0.0mm 19 W/m2
20:03 51.8 °F /  11 °C 29.5 °F /  -1.4 °C 30.2in /  1023.7hPa NW 0.9mph /  1.4km/h 6mph /  9.7km/h 42% 0in /  0.0mm 16 W/m2
20:08 51.4 °F /  10.8 °C 29.7 °F /  -1.3 °C 30.2in /  1023.7hPa NE 0.9mph /  1.4km/h 2mph /  3.2km/h 43% 0in /  0.0mm 14 W/m2
20:13 51.1 °F /  10.6 °C 29.8 °F /  -1.2 °C 30.2in /  1023.7hPa West 0.9mph /  1.4km/h 3mph /  4.8km/h 44% 0in /  0.0mm 12 W/m2
20:18 50.7 °F /  10.4 °C 29.7 °F /  -1.3 °C 30.2in /  1023.7hPa Calm   4mph /  6.4km/h 44% 0in /  0.0mm 9 W/m2
20:23 50.5 °F /  10.3 °C 30 °F /  -1.1 °C 30.2in /  1023.7hPa ENE 0.9mph /  1.4km/h 3mph /  4.8km/h 45% 0in /  0.0mm 7 W/m2
20:28 50.4 °F /  10.2 °C 29.8 °F /  -1.2 °C 30.2in /  1023.7hPa NNW 0.9mph /  1.4km/h 4mph /  6.4km/h 45% 0in /  0.0mm 5 W/m2
20:33 50.2 °F /  10.1 °C 30.2 °F /  -1 °C 30.2in /  1023.7hPa NNW 2mph /  3.2km/h 2mph /  3.2km/h 46% 0in /  0.0mm 0 W/m2
20:38 49.8 °F /  9.9 °C 29.8 °F /  -1.2 °C 30.2in /  1024.0hPa NNE 0.9mph /  1.4km/h 3mph /  4.8km/h 46% 0in /  0.0mm 0 W/m2
20:43 49.6 °F /  9.8 °C 30.2 °F /  -1 °C 30.2in /  1024.0hPa Calm   2mph /  3.2km/h 47% 0in /  0.0mm 0 W/m2
20:48 49.5 °F /  9.7 °C 30 °F /  -1.1 °C 30.2in /  1024.0hPa Calm   2mph /  3.2km/h 47% 0in /  0.0mm 0 W/m2
20:53 49.3 °F /  9.6 °C 30.4 °F /  -0.9 °C 30.2in /  1024.0hPa Calm   1mph /  1.6km/h 48% 0in /  0.0mm 0 W/m2
20:58 48.9 °F /  9.4 °C 30 °F /  -1.1 °C 30.2in /  1024.0hPa NNW 0.9mph /  1.4km/h 5mph /  8km/h 48% 0in /  0.0mm 0 W/m2
21:03 48.7 °F /  9.3 °C 30.4 °F /  -0.9 °C 30.2in /  1024.0hPa Calm   2mph /  3.2km/h 49% 0in /  0.0mm 0 W/m2
21:08 48.6 °F /  9.2 °C 30.2 °F /  -1 °C 30.2in /  1024.0hPa Calm   5mph /  8km/h 49% 0in /  0.0mm 0 W/m2
21:13 48.6 °F /  9.2 °C 30.7 °F /  -0.7 °C 30.2in /  1024.0hPa Calm   1mph /  1.6km/h 50% 0in /  0.0mm 0 W/m2
21:18 48 °F /  8.9 °C 30.7 °F /  -0.7 °C 30.2in /  1024.0hPa Calm   2mph /  3.2km/h 51% 0in /  0.0mm 0 W/m2
21:23 47.7 °F /  8.7 °C 31.8 °F /  -0.1 °C 30.2in /  1024.0hPa Calm   1mph /  1.6km/h 54% 0in /  0.0mm 0 W/m2
21:28 47.1 °F /  8.4 °C 31.3 °F /  -0.4 °C 30.2in /  1024.0hPa NE 2mph /  3.2km/h 2mph /  3.2km/h 54% 0in /  0.0mm 0 W/m2
21:33 46.8 °F /  8.2 °C 31.5 °F /  -0.3 °C 30.2in /  1024.0hPa Calm   2mph /  3.2km/h 55% 0in /  0.0mm 0 W/m2
21:38 46.4 °F /  8 °C 31.1 °F /  -0.5 °C 30.2in /  1024.0hPa Calm   1mph /  1.6km/h 55% 0in /  0.0mm 0 W/m2
21:43 46.2 °F /  7.9 °C 31.5 °F /  -0.3 °C 30.2in /  1024.0hPa Calm   1mph /  1.6km/h 56% 0in /  0.0mm 0 W/m2
21:48 46 °F /  7.8 °C 31.3 °F /  -0.4 °C 30.2in /  1024.0hPa Calm   1mph /  1.6km/h 56% 0in /  0.0mm 0 W/m2
21:53 45.9 °F /  7.7 °C 32 °F /  0 °C 30.2in /  1024.0hPa ESE 0.9mph /  1.4km/h 1mph /  1.6km/h 58% 0in /  0.0mm 0 W/m2
21:58 45.3 °F /  7.4 °C 31.8 °F /  -0.1 °C 30.2in /  1024.0hPa Calm   1mph /  1.6km/h 59% 0in /  0.0mm 0 W/m2
22:03 45.1 °F /  7.3 °C 31.6 °F /  -0.2 °C 30.2in /  1024.0hPa SE 2mph /  3.2km/h 3mph /  4.8km/h 59% 0in /  0.0mm 0 W/m2
22:08 45.1 °F /  7.3 °C 31.6 °F /  -0.2 °C 30.2in /  1024.0hPa ESE 0.9mph /  1.4km/h 1mph /  1.6km/h 59% 0in /  0.0mm 0 W/m2
22:13 45.1 °F /  7.3 °C 31.6 °F /  -0.2 °C 30.3in /  1024.4hPa ESE 2mph /  3.2km/h 3mph /  4.8km/h 59% 0in /  0.0mm 0 W/m2
22:18 45.1 °F /  7.3 °C 32 °F /  0 °C 30.3in /  1024.4hPa ESE 0.9mph /  1.4km/h 2mph /  3.2km/h 60% 0in /  0.0mm 0 W/m2
22:23 45 °F /  7.2 °C 32 °F /  0 °C 30.3in /  1024.4hPa Calm   1mph /  1.6km/h 60% 0in /  0.0mm 0 W/m2
22:28 44.8 °F /  7.1 °C 32.2 °F /  0.1 °C 30.3in /  1024.4hPa East 0.9mph /  1.4km/h 2mph /  3.2km/h 61% 0in /  0.0mm 0 W/m2
22:33 44.2 °F /  6.8 °C 32 °F /  0 °C 30.3in /  1024.4hPa Calm     62% 0in /  0.0mm 0 W/m2
22:39 43.9 °F /  6.6 °C 32.2 °F /  0.1 °C 30.3in /  1024.4hPa Calm   1mph /  1.6km/h 63% 0in /  0.0mm 0 W/m2
22:44 43.3 °F /  6.3 °C 32 °F /  0 °C 30.3in /  1024.4hPa East 0.9mph /  1.4km/h 1mph /  1.6km/h 64% 0in /  0.0mm 0 W/m2
22:49 42.8 °F /  6 °C 31.8 °F /  -0.1 °C 30.3in /  1024.4hPa Calm   1mph /  1.6km/h 65% 0in /  0.0mm 0 W/m2
22:54 42.3 °F /  5.7 °C 31.6 °F /  -0.2 °C 30.3in /  1024.4hPa Calm   1mph /  1.6km/h 66% 0in /  0.0mm 0 W/m2
22:59 42.1 °F /  5.6 °C 32 °F /  0 °C 30.3in /  1024.4hPa Calm   1mph /  1.6km/h 67% 0in /  0.0mm 0 W/m2
23:04 41.5 °F /  5.3 °C 31.8 °F /  -0.1 °C 30.3in /  1024.4hPa Calm   2mph /  3.2km/h 68% 0in /  0.0mm 0 W/m2
23:09 41.4 °F /  5.2 °C 32 °F /  0 °C 30.3in /  1024.4hPa SSE 0.9mph /  1.4km/h 3mph /  4.8km/h 69% 0in /  0.0mm 0 W/m2
23:14 41.2 °F /  5.1 °C 31.8 °F /  -0.1 °C 30.3in /  1024.4hPa Calm   3mph /  4.8km/h 69% 0in /  0.0mm 0 W/m2
23:19 41.2 °F /  5.1 °C 31.8 °F /  -0.1 °C 30.3in /  1024.7hPa Calm     69% 0in /  0.0mm 0 W/m2
23:24 40.8 °F /  4.9 °C 31.8 °F /  -0.1 °C 30.3in /  1024.4hPa Calm   2mph /  3.2km/h 70% 0in /  0.0mm 0 W/m2
23:29 40.6 °F /  4.8 °C 32 °F /  0 °C 30.3in /  1024.4hPa SSW 0.9mph /  1.4km/h 3mph /  4.8km/h 71% 0in /  0.0mm 0 W/m2
23:34 40.6 °F /  4.8 °C 32 °F /  0 °C 30.3in /  1024.4hPa SSW 0.9mph /  1.4km/h 2mph /  3.2km/h 71% 0in /  0.0mm 0 W/m2
23:39 40.5 °F /  4.7 °C 31.8 °F /  -0.1 °C 30.3in /  1024.4hPa Calm   3mph /  4.8km/h 71% 0in /  0.0mm 0 W/m2
23:44 40.5 °F /  4.7 °C 31.8 °F /  -0.1 °C 30.3in /  1024.4hPa Calm   1mph /  1.6km/h 71% 0in /  0.0mm 0 W/m2
23:49 40.3 °F /  4.6 °C 31.6 °F /  -0.2 °C 30.2in /  1024.0hPa Calm     71% 0in /  0.0mm 0 W/m2
23:54 39.9 °F /  4.4 °C 31.6 °F /  -0.2 °C 30.3in /  1024.4hPa Calm     72% 0in /  0.0mm 0 W/m2
23:59 39.7 °F /  4.3 °C 31.5 °F /  -0.3 °C 30.3in /  1024.4hPa Calm   1mph /  1.6km/h 72% 0in /  0.0mm 0 W/m2
Juneau County Weather
Compliments of Weather Underground - 2 mb